Time;durP1;ratioP1;P1;durP2;ratioP2;P2;SDS_P1;SDS_P2;PMS_P1;PMS_P2;Temp;Humidity;BMP_temperature;BMP_pressure;BME280_temperature;BME280_humidity;BME280_pressure;Samples;Min_cycle;Max_cycle;Signal;HPM_P1;HPM_P2
2022/09/12 00:02:08;;;;;;;1.80;1.40;;;;;14.70;96981.00;;;;111156;1250;43018;-63
2022/09/12 00:04:39;;;;;;;2.00;1.40;;;;;14.70;96984.20;;;;111147;1250;41525;-63
2022/09/12 00:07:09;;;;;;;1.30;1.20;;;;;14.70;96986.40;;;;111132;1249;41269;-62
2022/09/12 00:09:40;;;;;;;1.40;1.20;;;;;14.70;96984.80;;;;111057;1247;42041;-62
2022/09/12 00:12:11;;;;;;;1.50;1.20;;;;;14.64;96981.00;;;;111038;1250;41267;-62
2022/09/12 00:14:41;;;;;;;2.10;1.30;;;;;14.64;96982.00;;;;111065;1249;41151;-61
2022/09/12 00:17:11;;;;;;;;;;;;;14.60;96978.20;;;;111047;1249;41148;-61
2022/09/12 00:19:42;;;;;;;1.80;1.40;;;;;14.60;96979.40;;;;111070;1251;41901;-62
2022/09/12 00:22:13;;;;;;;1.90;1.30;;;;;14.60;96975.20;;;;111059;1248;41155;-63
2022/09/12 00:24:44;;;;;;;2.70;1.50;;;;;14.60;96977.00;;;;110928;1250;41935;-62
2022/09/12 00:27:16;;;;;;;1.70;1.30;;;;;14.60;96976.00;;;;110974;1251;41645;-62
2022/09/12 00:29:47;;;;;;;2.40;1.40;;;;;14.60;96973.60;;;;110860;1251;42641;-62
2022/09/12 00:32:20;;;;;;;2.70;1.60;;;;;14.60;96971.80;;;;110930;1250;41144;-62
2022/09/12 00:34:51;;;;;;;2.60;1.30;;;;;14.60;96971.60;;;;110919;1251;42014;-63
2022/09/12 00:37:24;;;;;;;5.30;1.70;;;;;14.64;96966.80;;;;110921;1251;41148;-62
2022/09/12 00:39:56;;;;;;;3.40;1.50;;;;;14.60;96960.80;;;;110997;1250;41712;-62
2022/09/12 00:42:30;;;;;;;3.20;1.50;;;;;14.60;96963.60;;;;110965;1251;41976;-62
2022/09/12 00:45:02;;;;;;;2.80;1.40;;;;;14.60;96960.00;;;;110964;1249;41249;-62
2022/09/12 00:47:36;;;;;;;1.50;1.20;;;;;14.60;96964.00;;;;110938;1251;42411;-62
2022/09/12 00:50:10;;;;;;;1.60;1.30;;;;;14.58;96965.20;;;;110998;1251;41609;-62
2022/09/12 00:52:48;;;;;;;2.00;1.30;;;;;14.58;96957.80;;;;110993;1250;41733;-62
2022/09/12 00:55:32;;;;;;;1.70;1.30;;;;;14.60;96961.00;;;;111002;1250;41155;-62
2022/09/12 00:58:07;;;;;;;1.80;1.20;;;;;14.60;96953.00;;;;110900;1250;41588;-62
2022/09/12 01:00:37;;;;;;;2.30;1.30;;;;;14.60;96958.60;;;;111002;1250;41251;-63
2022/09/12 01:03:13;;;;;;;3.70;1.40;;;;;14.52;96952.80;;;;111025;1251;41151;-63
2022/09/12 01:06:15;;;;;;;2.40;1.40;;;;;14.52;96953.40;;;;111020;1250;41713;-63
2022/09/12 01:08:46;;;;;;;3.70;1.70;;;;;14.50;96953.00;;;;110921;1250;41152;-63
2022/09/12 01:11:18;;;;;;;2.70;1.50;;;;;14.40;96956.60;;;;110765;1249;41609;-62
2022/09/12 01:13:49;;;;;;;2.00;1.50;;;;;14.34;96955.60;;;;110666;1250;41144;-62
2022/09/12 01:16:22;;;;;;;3.00;1.50;;;;;14.30;96956.00;;;;110762;1249;41170;-61
2022/09/12 01:19:02;;;;;;;3.80;1.60;;;;;14.30;96959.20;;;;110898;1250;42092;-62
2022/09/12 01:21:44;;;;;;;5.60;1.70;;;;;14.30;96957.00;;;;110983;1251;41534;-62
2022/09/12 01:24:48;;;;;;;4.20;1.40;;;;;14.30;96959.80;;;;110892;1250;41492;-62
2022/09/12 01:27:41;;;;;;;3.00;1.60;;;;;14.30;96964.40;;;;110578;1251;40980;-63
2022/09/12 01:30:23;;;;;;;5.70;2.00;;;;;14.30;96966.00;;;;110986;1248;41189;-62
2022/09/12 01:33:15;;;;;;;3.00;1.70;;;;;14.36;96963.00;;;;111093;1248;41132;-62
2022/09/12 01:35:56;;;;;;;5.00;1.90;;;;;14.30;96960.20;;;;111058;1248;41355;-62
2022/09/12 01:38:53;;;;;;;9.00;2.10;;;;;14.30;96962.60;;;;111057;1248;41717;-62
2022/09/12 01:41:44;;;;;;;6.40;1.80;;;;;14.22;96967.60;;;;111059;1248;41331;-62
2022/09/12 01:44:33;;;;;;;3.90;1.50;;;;;14.30;96963.60;;;;110728;1251;42486;-64
2022/09/12 01:47:09;;;;;;;3.70;1.50;;;;;14.30;96961.20;;;;111045;1247;41425;-63
2022/09/12 01:49:41;;;;;;;3.80;1.70;;;;;14.30;96957.20;;;;110870;1248;41388;-63
2022/09/12 01:52:14;;;;;;;4.80;1.90;;;;;14.30;96952.80;;;;111067;1247;41131;-63
2022/09/12 01:54:55;;;;;;;2.70;1.40;;;;;14.30;96953.80;;;;111025;1247;42438;-63
2022/09/12 01:57:31;;;;;;;2.80;1.40;;;;;14.30;96954.20;;;;111118;1249;41154;-63
2022/09/12 02:00:07;;;;;;;2.30;1.40;;;;;14.30;96953.40;;;;110870;1249;41145;-63
2022/09/12 02:03:07;;;;;;;2.30;1.50;;;;;14.30;96953.00;;;;111077;1249;41141;-62
2022/09/12 02:06:01;;;;;;;3.50;1.50;;;;;14.30;96950.00;;;;111122;1250;41187;-62
2022/09/12 02:08:38;;;;;;;1.40;1.30;;;;;14.32;96951.20;;;;110986;1247;41727;-63
2022/09/12 02:11:11;;;;;;;1.40;1.20;;;;;14.32;96952.40;;;;111105;1247;41256;-63
2022/09/12 02:13:49;;;;;;;1.60;1.40;;;;;14.40;96957.00;;;;111127;1249;41606;-62
2022/09/12 02:16:33;;;;;;;3.70;1.50;;;;;14.40;96959.60;;;;111117;1249;41378;-62
2022/09/12 02:19:17;;;;;;;2.50;1.30;;;;;14.40;96959.00;;;;111073;1248;41247;-63
2022/09/12 02:21:55;;;;;;;2.40;1.40;;;;;14.40;96958.60;;;;110832;1250;41135;-63
2022/09/12 02:24:32;;;;;;;2.90;1.60;;;;;14.40;96956.00;;;;110972;1250;41154;-66
2022/09/12 02:27:15;;;;;;;3.10;1.60;;;;;14.40;96957.80;;;;111105;1248;41618;-63
2022/09/12 02:29:46;;;;;;;3.20;1.50;;;;;14.46;96951.80;;;;110735;1251;41935;-62
2022/09/12 02:32:25;;;;;;;3.30;1.70;;;;;14.44;96949.60;;;;111047;1248;41260;-60
2022/09/12 02:34:58;;;;;;;4.20;1.80;;;;;14.48;96947.80;;;;110828;1249;41300;-62
2022/09/12 02:37:46;;;;;;;7.50;2.70;;;;;14.46;96947.00;;;;111082;1247;41148;-63
2022/09/12 02:40:17;;;;;;;5.30;1.90;;;;;14.50;96942.60;;;;111055;1248;41148;-62
2022/09/12 02:42:49;;;;;;;3.90;1.90;;;;;14.42;96942.40;;;;110963;1249;41300;-63
2022/09/12 02:45:22;;;;;;;2.90;1.60;;;;;14.40;96944.80;;;;110994;1249;41858;-63
2022/09/12 02:48:01;;;;;;;2.60;1.70;;;;;14.40;96945.60;;;;111057;1247;41153;-62
2022/09/12 02:50:31;;;;;;;3.60;1.70;;;;;14.40;96946.60;;;;111050;1250;41764;-62
2022/09/12 02:53:03;;;;;;;4.40;1.40;;;;;14.30;96948.80;;;;111013;1248;41425;-62
2022/09/12 02:55:35;;;;;;;3.80;1.40;;;;;14.30;96945.20;;;;110801;1251;41274;-62
2022/09/12 02:58:08;;;;;;;3.10;1.60;;;;;14.30;96945.60;;;;111069;1249;41253;-62
2022/09/12 03:00:53;;;;;;;2.40;1.30;;;;;14.28;96946.80;;;;111021;1250;42301;-62
2022/09/12 03:03:37;;;;;;;3.50;1.40;;;;;14.30;96950.60;;;;111018;1249;41304;-62
2022/09/12 03:06:54;;;;;;;1.60;1.20;;;;;14.28;96950.00;;;;111074;1248;41252;-62
2022/09/12 03:09:43;;;;;;;3.40;1.40;;;;;14.30;96947.60;;;;110999;1251;42418;-63
2022/09/12 03:12:38;;;;;;;2.00;1.40;;;;;14.30;96943.20;;;;111041;1247;41159;-60
2022/09/12 03:15:26;;;;;;;3.50;1.70;;;;;14.30;96947.20;;;;111055;1248;41152;-61
2022/09/12 03:18:28;;;;;;;4.50;1.80;;;;;14.38;96952.20;;;;111016;1248;41247;-62
2022/09/12 03:21:51;;;;;;;2.40;1.50;;;;;14.40;96947.00;;;;110693;1250;41782;-63
2022/09/12 03:24:25;;;;;;;1.60;1.30;;;;;14.36;96947.40;;;;110378;1257;41156;-62
2022/09/12 03:26:56;;;;;;;2.80;1.50;;;;;14.30;96951.60;;;;111068;1250;41160;-61
2022/09/12 03:29:26;;;;;;;1.90;1.40;;;;;14.32;96955.20;;;;111114;1247;41250;-62
2022/09/12 03:31:57;;;;;;;2.70;1.50;;;;;14.40;96957.20;;;;110930;1248;41266;-61
2022/09/12 03:34:27;;;;;;;1.80;1.40;;;;;14.40;96953.80;;;;111036;1250;41141;-61
2022/09/12 03:36:58;;;;;;;4.30;1.80;;;;;14.40;96958.00;;;;111090;1248;41596;-61
2022/09/12 03:39:28;;;;;;;3.80;1.50;;;;;14.40;96955.20;;;;111082;1248;41273;-62
2022/09/12 03:41:57;;;;;;;3.90;1.60;;;;;14.44;96957.00;;;;110713;1250;41604;-61
2022/09/12 03:44:27;;;;;;;2.60;1.50;;;;;14.50;96953.20;;;;111073;1248;41256;-61
2022/09/12 03:46:56;;;;;;;4.00;1.70;;;;;14.46;96950.40;;;;111045;1248;41247;-61
2022/09/12 03:49:26;;;;;;;3.10;1.80;;;;;14.50;96955.00;;;;111049;1250;41136;-62
2022/09/12 03:51:55;;;;;;;7.30;1.80;;;;;14.50;96957.80;;;;111026;1248;41248;-62
2022/09/12 03:54:24;;;;;;;2.90;1.70;;;;;14.40;96960.20;;;;111085;1248;41322;-63
2022/09/12 03:56:54;;;;;;;2.60;1.50;;;;;14.40;96953.60;;;;111048;1248;41605;-63
2022/09/12 03:59:24;;;;;;;5.30;1.90;;;;;14.40;96953.20;;;;110979;1250;42352;-63
2022/09/12 04:01:53;;;;;;;2.70;1.50;;;;;14.40;96956.60;;;;111065;1250;42281;-60
2022/09/12 04:04:23;;;;;;;3.00;1.60;;;;;14.40;96953.20;;;;111088;1248;41714;-63
2022/09/12 04:06:52;;;;;;;2.90;1.50;;;;;14.40;96959.80;;;;111027;1246;41145;-61
2022/09/12 04:09:22;;;;;;;1.90;1.40;;;;;14.40;96957.80;;;;110682;1251;41269;-61
2022/09/12 04:11:51;;;;;;;2.90;1.50;;;;;14.40;96957.20;;;;111026;1247;41280;-62
2022/09/12 04:14:20;;;;;;;2.30;1.50;;;;;14.40;96963.60;;;;111053;1249;41130;-61
2022/09/12 04:16:49;;;;;;;2.30;1.30;;;;;14.40;96967.20;;;;111107;1248;41134;-61
2022/09/12 04:19:18;;;;;;;2.70;1.60;;;;;14.40;96972.40;;;;111072;1247;41179;-62
2022/09/12 04:21:47;;;;;;;2.20;1.50;;;;;14.40;96981.00;;;;111022;1248;42099;-61
2022/09/12 04:24:16;;;;;;;3.80;1.80;;;;;14.40;96982.60;;;;111011;1247;41310;-61
2022/09/12 04:26:45;;;;;;;4.10;1.80;;;;;14.48;96985.80;;;;111016;1249;41122;-62
2022/09/12 04:29:14;;;;;;;4.10;1.70;;;;;14.50;96984.00;;;;110755;1250;41256;-62
2022/09/12 04:31:43;;;;;;;3.80;1.80;;;;;14.50;96984.60;;;;110954;1247;41961;-62
2022/09/12 04:34:13;;;;;;;5.30;2.00;;;;;14.50;96983.80;;;;111053;1248;42278;-62
2022/09/12 04:36:42;;;;;;;4.80;2.00;;;;;14.54;96981.40;;;;111008;1247;42380;-62
2022/09/12 04:39:11;;;;;;;4.70;2.00;;;;;14.60;96988.40;;;;111050;1248;41888;-63
2022/09/12 04:41:43;;;;;;;3.80;1.80;;;;;14.60;96987.60;;;;111119;1247;41427;-63
2022/09/12 04:44:14;;;;;;;5.90;1.70;;;;;14.60;96991.20;;;;111112;1247;41124;-63
2022/09/12 04:46:45;;;;;;;8.00;2.10;;;;;14.60;96992.20;;;;111023;1250;41147;-63
2022/09/12 04:49:16;;;;;;;4.50;2.00;;;;;14.60;96998.00;;;;111084;1249;41389;-62
2022/09/12 04:51:45;;;;;;;4.30;1.90;;;;;14.60;97000.00;;;;111091;1248;41176;-63
2022/09/12 04:54:17;;;;;;;4.10;1.80;;;;;14.60;97007.80;;;;111094;1247;41175;-63
2022/09/12 04:56:48;;;;;;;3.40;1.60;;;;;14.60;97012.60;;;;111079;1248;41331;-63
2022/09/12 04:59:19;;;;;;;6.10;2.30;;;;;14.60;97011.60;;;;111097;1247;41154;-62
2022/09/12 05:01:48;;;;;;;3.30;1.60;;;;;14.66;97012.00;;;;111083;1247;41756;-63
2022/09/12 05:04:17;;;;;;;3.70;2.00;;;;;14.66;97017.20;;;;111054;1248;41128;-61
2022/09/12 05:06:46;;;;;;;5.20;2.20;;;;;14.70;97023.00;;;;111028;1247;42088;-62
2022/09/12 05:09:15;;;;;;;7.20;2.00;;;;;14.70;97020.80;;;;111008;1250;41130;-63
2022/09/12 05:11:45;;;;;;;3.80;1.80;;;;;14.70;97021.00;;;;111055;1247;41147;-62
2022/09/12 05:14:33;;;;;;;4.20;2.00;;;;;14.76;97019.20;;;;111051;1248;41268;-63
2022/09/12 05:17:04;;;;;;;4.00;1.90;;;;;14.80;97024.60;;;;111061;1250;41128;-63
2022/09/12 05:19:33;;;;;;;3.70;1.90;;;;;14.80;97020.20;;;;111000;1248;41196;-62
2022/09/12 05:22:03;;;;;;;3.90;2.00;;;;;14.82;97013.80;;;;111083;1248;41368;-62
2022/09/12 05:24:32;;;;;;;4.10;2.10;;;;;14.82;97016.40;;;;111041;1247;41371;-63
2022/09/12 05:27:03;;;;;;;4.70;2.00;;;;;14.90;97011.40;;;;111072;1247;41933;-62
2022/09/12 05:29:32;;;;;;;5.00;2.20;;;;;14.88;97014.00;;;;109708;1249;1828784;-63
2022/09/12 05:32:02;;;;;;;6.20;2.20;;;;;14.90;97015.80;;;;111093;1248;42437;-62
2022/09/12 05:34:32;;;;;;;7.10;2.30;;;;;14.90;97012.60;;;;111029;1248;41315;-62
2022/09/12 05:37:01;;;;;;;4.10;1.90;;;;;14.90;97010.60;;;;111093;1247;41257;-62
2022/09/12 05:39:30;;;;;;;4.20;2.00;;;;;14.90;97012.00;;;;111088;1247;41937;-62
2022/09/12 05:41:59;;;;;;;4.80;2.00;;;;;14.90;97017.20;;;;111079;1247;41523;-63
2022/09/12 05:44:28;;;;;;;4.70;2.10;;;;;14.92;97020.60;;;;111028;1247;42331;-63
2022/09/12 05:46:58;;;;;;;5.80;2.30;;;;;15.00;97019.00;;;;111045;1247;41993;-63
2022/09/12 05:49:27;;;;;;;4.40;2.10;;;;;15.04;97018.20;;;;110985;1248;41504;-61
2022/09/12 05:51:56;;;;;;;5.20;2.10;;;;;15.12;97018.00;;;;111038;1248;41725;-61
2022/09/12 05:54:26;;;;;;;5.70;2.20;;;;;15.24;97015.00;;;;110980;1247;41246;-62
2022/09/12 05:57:00;;;;;;;4.90;2.10;;;;;15.40;97014.60;;;;111055;1248;41607;-63
2022/09/12 05:59:29;;;;;;;4.80;2.10;;;;;15.50;97013.20;;;;111073;1248;41596;-63
2022/09/12 06:01:57;;;;;;;5.70;2.20;;;;;15.50;97014.60;;;;111098;1248;41256;-62
2022/09/12 06:04:26;;;;;;;4.50;1.90;;;;;15.50;97018.60;;;;111050;1248;41127;-62
2022/09/12 06:06:55;;;;;;;3.10;1.80;;;;;15.50;97025.60;;;;111103;1247;41979;-62
2022/09/12 06:09:24;;;;;;;5.90;2.20;;;;;15.50;97021.40;;;;111018;1247;41620;-62
2022/09/12 06:11:54;;;;;;;5.40;2.40;;;;;15.50;97020.20;;;;110999;1248;41177;-62
2022/09/12 06:14:23;;;;;;;5.10;2.30;;;;;15.54;97020.20;;;;111063;1247;41942;-62
2022/09/12 06:16:52;;;;;;;6.00;2.60;;;;;15.86;97011.40;;;;111060;1247;41647;-62
2022/09/12 06:19:26;;;;;;;5.50;2.20;;;;;16.30;97018.20;;;;111071;1248;41263;-62
2022/09/12 06:21:55;;;;;;;4.90;2.30;;;;;16.50;97017.80;;;;111064;1249;41215;-62
2022/09/12 06:24:25;;;;;;;4.70;2.10;;;;;16.88;96987.00;;;;111080;1247;41554;-62
2022/09/12 06:26:54;;;;;;;5.60;2.40;;;;;17.60;97009.60;;;;111074;1249;41252;-62
2022/09/12 06:29:23;;;;;;;4.90;2.30;;;;;17.80;97005.80;;;;111084;1247;41151;-62
2022/09/12 06:31:54;;;;;;;5.70;2.30;;;;;18.00;96995.00;;;;110765;1248;41255;-62
2022/09/12 06:34:23;;;;;;;6.30;2.10;;;;;18.00;97003.40;;;;111090;1247;41260;-62
2022/09/12 06:36:52;;;;;;;4.30;2.00;;;;;17.80;97010.60;;;;111038;1248;41152;-62
2022/09/12 06:39:22;;;;;;;5.30;2.20;;;;;17.70;97012.20;;;;111067;1248;41881;-63
2022/09/12 06:41:51;;;;;;;6.50;2.30;;;;;17.70;97015.40;;;;110784;1248;41218;-62
2022/09/12 06:44:29;;;;;;;8.40;2.30;;;;;17.60;97013.00;;;;110733;1248;41252;-63
2022/09/12 06:47:01;;;;;;;5.00;2.00;;;;;17.60;97009.40;;;;111055;1249;41129;-63
2022/09/12 06:49:30;;;;;;;4.10;1.90;;;;;18.10;97006.00;;;;111084;1247;41290;-63
2022/09/12 06:52:03;;;;;;;3.50;1.80;;;;;18.50;97015.60;;;;110778;1247;41422;-63
2022/09/12 06:54:32;;;;;;;5.60;2.10;;;;;18.50;97024.60;;;;111092;1250;41163;-62
2022/09/12 06:57:01;;;;;;;5.30;2.10;;;;;18.24;97025.00;;;;111084;1247;41246;-65
2022/09/12 06:59:30;;;;;;;5.80;1.70;;;;;18.08;97025.60;;;;111098;1247;41152;-64
2022/09/12 07:02:00;;;;;;;4.70;2.10;;;;;18.00;97031.20;;;;111226;1247;42535;-62
2022/09/12 07:04:32;;;;;;;5.20;2.10;;;;;17.80;97027.00;;;;111069;1247;42317;-63
2022/09/12 07:07:01;;;;;;;4.50;2.00;;;;;17.70;97032.00;;;;111182;1248;41265;-63
2022/09/12 07:09:30;;;;;;;4.80;2.10;;;;;17.60;97027.40;;;;111121;1248;41140;-63
2022/09/12 07:12:03;;;;;;;5.10;2.20;;;;;17.70;97026.20;;;;111094;1248;42471;-62
2022/09/12 07:14:32;;;;;;;4.90;2.00;;;;;18.04;97024.60;;;;111056;1248;41237;-62
2022/09/12 07:17:01;;;;;;;4.70;1.90;;;;;18.24;97026.00;;;;111025;1247;41492;-62
2022/09/12 07:19:30;;;;;;;4.40;2.10;;;;;18.20;97032.20;;;;111086;1247;41237;-62
2022/09/12 07:22:00;;;;;;;4.30;2.10;;;;;18.20;97028.40;;;;111066;1247;41137;-62
2022/09/12 07:24:29;;;;;;;5.30;2.10;;;;;18.00;97034.40;;;;111113;1247;41627;-62
2022/09/12 07:26:58;;;;;;;4.10;1.90;;;;;18.40;97017.20;;;;111046;1248;41142;-62
2022/09/12 07:29:26;;;;;;;4.80;2.10;;;;;19.64;97012.20;;;;111078;1248;41123;-63
2022/09/12 07:32:05;;;;;;;3.70;1.80;;;;;20.94;97005.00;;;;111074;1248;41542;-64
2022/09/12 07:34:34;;;;;;;5.90;2.20;;;;;21.82;97012.40;;;;111097;1247;41151;-64
2022/09/12 07:37:05;;;;;;;5.40;2.20;;;;;22.80;97018.40;;;;111011;1247;42141;-64
2022/09/12 07:39:34;;;;;;;4.70;1.90;;;;;23.60;97020.20;;;;111038;1248;41253;-64
2022/09/12 07:42:03;;;;;;;5.20;2.20;;;;;23.36;97016.80;;;;111104;1248;41945;-63
2022/09/12 07:44:32;;;;;;;4.00;1.70;;;;;22.90;97029.20;;;;111065;1248;41132;-63
2022/09/12 07:47:00;;;;;;;3.70;1.50;;;;;22.20;97039.40;;;;111051;1247;42391;-63
2022/09/12 07:49:30;;;;;;;3.30;1.60;;;;;21.92;97041.80;;;;111079;1249;41240;-64
2022/09/12 07:51:59;;;;;;;4.00;1.90;;;;;21.76;97036.80;;;;111061;1247;41243;-63
2022/09/12 07:54:28;;;;;;;4.60;2.00;;;;;22.48;97036.80;;;;111065;1247;41657;-63
2022/09/12 07:56:57;;;;;;;2.90;1.60;;;;;22.64;97032.20;;;;111070;1247;41154;-63
2022/09/12 07:59:26;;;;;;;4.40;1.90;;;;;23.10;97034.60;;;;111060;1247;41658;-63
2022/09/12 08:02:16;;;;;;;4.00;1.70;;;;;24.14;97033.40;;;;111075;1247;41585;-63
2022/09/12 08:04:47;;;;;;;4.20;1.80;;;;;24.96;97028.20;;;;111054;1247;41142;-63
2022/09/12 08:07:17;;;;;;;2.80;1.50;;;;;25.12;97028.20;;;;111120;1248;41173;-64
2022/09/12 08:09:47;;;;;;;3.10;1.60;;;;;25.20;97034.40;;;;111024;1248;41316;-64
2022/09/12 08:12:16;;;;;;;3.90;1.70;;;;;25.38;97040.60;;;;111082;1247;41140;-63
2022/09/12 08:14:45;;;;;;;3.20;1.60;;;;;25.24;97033.80;;;;111094;1247;41138;-64
2022/09/12 08:17:14;;;;;;;3.30;1.70;;;;;25.34;97028.20;;;;111076;1248;41141;-64
2022/09/12 08:19:43;;;;;;;2.80;1.50;;;;;25.38;97031.40;;;;111064;1248;41114;-63
2022/09/12 08:22:13;;;;;;;3.70;1.70;;;;;25.80;97038.40;;;;111086;1247;41253;-65
2022/09/12 08:24:42;;;;;;;5.10;1.70;;;;;26.24;97028.40;;;;110705;1250;41607;-64
2022/09/12 08:27:11;;;;;;;4.60;1.60;;;;;27.14;97025.80;;;;111082;1247;41204;-64
2022/09/12 08:29:41;;;;;;;3.00;1.60;;;;;27.50;97020.60;;;;111107;1247;41153;-64
2022/09/12 08:32:10;;;;;;;3.20;1.60;;;;;27.16;97021.20;;;;111117;1247;41136;-64
2022/09/12 08:34:39;;;;;;;3.20;1.30;;;;;26.70;97019.80;;;;110673;1250;42330;-64
2022/09/12 08:37:08;;;;;;;3.10;1.50;;;;;26.32;97020.60;;;;111206;1247;42344;-64
2022/09/12 08:39:43;;;;;;;6.00;1.80;;;;;26.54;97008.00;;;;110857;1248;41145;-64
2022/09/12 08:42:42;;;;;;;4.50;1.50;;;;;27.54;97018.40;;;;111020;1248;41248;-64
2022/09/12 08:45:26;;;;;;;3.00;1.40;;;;;27.92;97008.00;;;;111150;1247;41145;-64
2022/09/12 08:48:04;;;;;;;4.20;1.60;;;;;28.32;97014.20;;;;111045;1247;41212;-64
2022/09/12 08:50:44;;;;;;;3.70;1.50;;;;;28.58;97006.80;;;;111089;1248;41144;-64
2022/09/12 08:53:24;;;;;;;4.00;1.50;;;;;29.12;97001.60;;;;111058;1248;41134;-64
2022/09/12 08:55:59;;;;;;;2.90;1.40;;;;;29.76;97000.60;;;;111068;1248;41134;-64
2022/09/12 08:58:29;;;;;;;3.90;1.60;;;;;30.48;96999.20;;;;111064;1247;41604;-64
2022/09/12 09:01:34;;;;;;;5.20;1.50;;;;;30.90;96998.20;;;;111091;1247;41205;-64
2022/09/12 09:04:20;;;;;;;3.20;1.50;;;;;30.68;96992.00;;;;111027;1248;41215;-63
2022/09/12 09:07:13;;;;;;;3.80;1.50;;;;;30.40;96996.40;;;;110848;1250;41634;-63
2022/09/12 09:09:55;;;;;;;4.80;1.50;;;;;30.28;96990.20;;;;111011;1247;41142;-63
2022/09/12 09:12:31;;;;;;;3.70;1.60;;;;;30.30;96993.20;;;;111060;1247;41175;-63
2022/09/12 09:15:28;;;;;;;4.60;1.40;;;;;30.30;96993.80;;;;111036;1248;41553;-63
2022/09/12 09:18:13;;;;;;;3.40;1.50;;;;;30.28;96979.80;;;;111070;1247;41262;-63
2022/09/12 09:20:45;;;;;;;3.70;1.50;;;;;29.54;96987.80;;;;111074;1248;41463;-64
2022/09/12 09:23:24;;;;;;;3.40;1.50;;;;;29.02;96995.40;;;;111084;1247;41263;-64
2022/09/12 09:26:01;;;;;;;3.00;1.50;;;;;28.70;96989.00;;;;110943;1247;41174;-64
2022/09/12 09:28:44;;;;;;;4.90;1.50;;;;;28.70;96990.60;;;;111018;1247;41136;-63
2022/09/12 09:31:18;;;;;;;3.60;1.40;;;;;28.68;96983.60;;;;111002;1248;41139;-64
2022/09/12 09:33:50;;;;;;;4.70;1.40;;;;;28.52;96997.20;;;;111032;1248;41152;-64
2022/09/12 09:36:48;;;;;;;5.70;1.70;;;;;28.98;96993.80;;;;111084;1247;41205;-63
2022/09/12 09:39:17;;;;;;;2.50;1.30;;;;;29.34;96991.40;;;;110972;1251;41263;-63
2022/09/12 09:42:09;;;;;;;3.70;1.20;;;;;29.50;96987.20;;;;110991;1248;41162;-64
2022/09/12 09:44:38;;;;;;;2.70;1.40;;;;;30.34;96992.00;;;;111021;1248;41123;-64
2022/09/12 09:47:10;;;;;;;5.40;1.50;;;;;30.70;96979.60;;;;110681;1250;41145;-64
2022/09/12 09:49:40;;;;;;;5.40;1.70;;;;;30.84;96992.00;;;;111029;1248;42377;-64
2022/09/12 09:52:13;;;;;;;3.20;1.40;;;;;30.92;96990.20;;;;110988;1248;41253;-64
2022/09/12 09:54:48;;;;;;;3.20;1.40;;;;;30.56;96982.00;;;;111026;1248;41130;-64
2022/09/12 09:57:41;;;;;;;3.40;1.20;;;;;30.50;96991.40;;;;111002;1247;41603;-64
2022/09/12 10:00:30;;;;;;;3.70;1.40;;;;;30.78;96990.60;;;;110921;1250;42238;-65
2022/09/12 10:03:27;;;;;;;2.20;1.20;;;;;30.94;96992.00;;;;111142;1248;41432;-64
2022/09/12 10:06:20;;;;;;;2.60;1.30;;;;;30.62;96989.80;;;;111038;1247;41140;-64
2022/09/12 10:08:49;;;;;;;2.00;1.40;;;;;30.80;96999.80;;;;110915;1248;41440;-64
2022/09/12 10:11:25;;;;;;;3.90;1.40;;;;;30.66;97010.80;;;;110960;1247;42199;-63
2022/09/12 10:13:57;;;;;;;3.00;1.20;;;;;29.92;97004.60;;;;111055;1248;41456;-64
2022/09/12 10:16:28;;;;;;;1.50;1.10;;;;;29.56;97005.00;;;;111031;1247;41158;-64
2022/09/12 10:18:59;;;;;;;3.10;1.40;;;;;30.10;97007.60;;;;110977;1250;41158;-65
2022/09/12 10:21:33;;;;;;;2.80;1.30;;;;;30.02;97011.80;;;;111057;1248;41768;-63
2022/09/12 10:24:23;;;;;;;4.30;1.60;;;;;29.64;97009.00;;;;111062;1248;42134;-64
2022/09/12 10:27:10;;;;;;;3.30;1.40;;;;;29.02;97006.20;;;;110909;1247;41276;-64
2022/09/12 10:29:47;;;;;;;5.70;1.50;;;;;28.34;97020.20;;;;111067;1247;41516;-63
2022/09/12 10:32:41;;;;;;;2.90;1.50;;;;;28.44;97019.60;;;;111082;1248;41151;-63
2022/09/12 10:35:21;;;;;;;3.50;1.40;;;;;28.70;97021.20;;;;110977;1248;42067;-64
2022/09/12 10:38:05;;;;;;;2.60;1.50;;;;;28.82;97021.20;;;;111104;1247;41270;-63
2022/09/12 10:40:39;;;;;;;5.00;1.30;;;;;29.00;97024.60;;;;111046;1247;41140;-64
2022/09/12 10:43:23;;;;;;;2.30;1.30;;;;;29.24;97021.60;;;;111007;1250;41696;-63
2022/09/12 10:45:57;;;;;;;2.70;1.20;;;;;29.46;97015.60;;;;111075;1249;41703;-63
2022/09/12 10:48:30;;;;;;;5.00;1.70;;;;;29.58;97016.60;;;;111049;1248;41147;-64
2022/09/12 10:51:00;;;;;;;3.00;1.50;;;;;29.12;97017.20;;;;111051;1247;41301;-64
2022/09/12 10:53:42;;;;;;;3.60;1.40;;;;;28.60;97020.80;;;;111096;1248;41758;-64
2022/09/12 10:56:16;;;;;;;2.60;1.30;;;;;28.20;97032.00;;;;111057;1247;41902;-64
2022/09/12 10:59:02;;;;;;;1.50;1.20;;;;;28.28;97038.00;;;;111108;1247;41135;-64
2022/09/12 11:01:31;;;;;;;2.10;1.30;;;;;28.80;97038.00;;;;111052;1248;41151;-64
2022/09/12 11:04:54;;;;;;;2.80;1.40;;;;;28.74;97043.20;;;;111069;1247;41137;-63
2022/09/12 11:07:47;;;;;;;3.10;1.40;;;;;29.06;97034.80;;;;110296;1256;41159;-64
2022/09/12 11:10:29;;;;;;;3.60;1.50;;;;;28.80;97032.80;;;;110990;1250;41699;-64
2022/09/12 11:13:15;;;;;;;2.90;1.30;;;;;27.86;97032.00;;;;111078;1248;41921;-63
2022/09/12 11:16:08;;;;;;;2.80;1.20;;;;;27.40;97048.20;;;;111127;1247;41134;-64
2022/09/12 11:18:49;;;;;;;4.80;1.60;;;;;27.40;97038.00;;;;110920;1247;41167;-64
2022/09/12 11:21:26;;;;;;;4.50;1.40;;;;;27.60;97040.00;;;;111002;1248;41267;-63
2022/09/12 11:24:27;;;;;;;2.50;1.40;;;;;27.56;97044.60;;;;110982;1247;41719;-64
2022/09/12 11:27:21;;;;;;;3.30;1.40;;;;;28.28;97048.40;;;;110344;1250;41653;-63
2022/09/12 11:29:59;;;;;;;3.40;1.40;;;;;28.50;97039.20;;;;111025;1247;41139;-64
2022/09/12 11:32:59;;;;;;;2.30;1.20;;;;;29.08;97040.20;;;;111020;1247;41379;-64
2022/09/12 11:35:29;;;;;;;2.50;1.40;;;;;29.56;97033.80;;;;111018;1248;42023;-64
2022/09/12 11:38:29;;;;;;;3.60;1.40;;;;;30.34;97033.20;;;;111011;1247;41583;-64
2022/09/12 11:41:22;;;;;;;2.90;1.40;;;;;30.74;97031.00;;;;111064;1247;41182;-64
2022/09/12 11:44:09;;;;;;;2.40;1.20;;;;;31.56;97019.00;;;;110855;1248;41259;-64
2022/09/12 11:46:39;;;;;;;2.00;1.30;;;;;31.58;97025.00;;;;111068;1247;41153;-65
2022/09/12 11:49:11;;;;;;;1.50;1.20;;;;;31.96;97027.60;;;;110836;1250;41427;-64
2022/09/12 11:51:42;;;;;;;2.30;1.30;;;;;32.44;97025.80;;;;111064;1247;41252;-63
2022/09/12 11:54:27;;;;;;;2.40;1.50;;;;;33.28;97026.20;;;;111052;1247;41306;-64
2022/09/12 11:57:18;;;;;;;6.50;1.20;;;;;33.38;97023.60;;;;110988;1248;41158;-64
2022/09/12 12:00:13;;;;;;;2.40;1.20;;;;;33.08;97022.00;;;;111064;1247;41183;-63
2022/09/12 12:02:57;;;;;;;2.10;1.40;;;;;32.72;97024.60;;;;111051;1248;41583;-63
2022/09/12 12:06:18;;;;;;;4.00;1.50;;;;;32.40;97030.00;;;;111093;1247;41141;-63
2022/09/12 12:08:49;;;;;;;2.40;1.20;;;;;32.30;97031.00;;;;110136;1256;41254;-63
2022/09/12 12:11:31;;;;;;;2.90;1.30;;;;;31.50;97034.40;;;;110195;1256;41274;-63
2022/09/12 12:14:03;;;;;;;1.50;1.10;;;;;31.20;97028.20;;;;110769;1250;41271;-63
2022/09/12 12:16:34;;;;;;;4.70;1.40;;;;;30.26;97031.60;;;;111061;1248;41150;-63
2022/09/12 12:19:28;;;;;;;2.70;1.40;;;;;29.50;97033.20;;;;111121;1248;41191;-63
2022/09/12 12:22:15;;;;;;;2.50;1.10;;;;;29.84;97033.60;;;;111050;1247;41143;-63
2022/09/12 12:25:06;;;;;;;2.20;1.20;;;;;30.46;97034.40;;;;111066;1247;41143;-63
2022/09/12 12:27:55;;;;;;;4.10;1.40;;;;;30.54;97041.00;;;;111038;1248;41299;-63
2022/09/12 12:30:30;;;;;;;2.90;1.30;;;;;30.92;97042.40;;;;111092;1248;41491;-63
2022/09/12 12:33:12;;;;;;;2.60;1.40;;;;;31.66;97022.80;;;;111152;1247;41150;-63
2022/09/12 12:35:45;;;;;;;3.00;1.50;;;;;30.14;97037.40;;;;111089;1249;42232;-63
2022/09/12 12:38:32;;;;;;;2.80;1.40;;;;;29.96;97044.80;;;;111009;1248;41251;-63
2022/09/12 12:41:16;;;;;;;2.50;1.30;;;;;30.20;97041.60;;;;110947;1247;41712;-63
2022/09/12 12:43:52;;;;;;;4.30;1.40;;;;;29.54;97049.20;;;;110984;1249;41243;-64
2022/09/12 12:46:22;;;;;;;2.90;1.40;;;;;29.44;97049.40;;;;111042;1248;41237;-64
2022/09/12 12:49:12;;;;;;;2.60;1.40;;;;;29.62;97042.20;;;;111041;1248;41144;-64
2022/09/12 12:51:52;;;;;;;2.50;1.40;;;;;29.58;97042.60;;;;110923;1248;41150;-64
2022/09/12 12:54:51;;;;;;;4.20;1.50;;;;;29.24;97044.00;;;;111023;1248;41707;-64